sensor_id;sensor_type;location;lat;lon;timestamp;P1;durP1;ratioP1;P2;durP2;ratioP2
13432;SDS011;6789;47.678;9.158;2023-05-07T00:00:35;5.18;;;3.58;;
13432;SDS011;6789;47.678;9.158;2023-05-07T00:06:01;5.05;;;3.50;;
13432;SDS011;6789;47.678;9.158;2023-05-07T00:10:52;5.00;;;3.45;;
13432;SDS011;6789;47.678;9.158;2023-05-07T00:15:44;5.35;;;3.22;;
13432;SDS011;6789;47.678;9.158;2023-05-07T00:20:51;6.75;;;4.18;;
13432;SDS011;6789;47.678;9.158;2023-05-07T00:26:07;4.78;;;3.50;;
13432;SDS011;6789;47.678;9.158;2023-05-07T00:31:28;5.40;;;3.83;;
13432;SDS011;6789;47.678;9.158;2023-05-07T00:36:36;3.80;;;3.08;;
13432;SDS011;6789;47.678;9.158;2023-05-07T00:41:50;6.05;;;3.10;;
13432;SDS011;6789;47.678;9.158;2023-05-07T00:46:56;4.00;;;2.95;;
13432;SDS011;6789;47.678;9.158;2023-05-07T00:52:05;5.85;;;4.05;;
13432;SDS011;6789;47.678;9.158;2023-05-07T00:57:29;4.28;;;3.17;;
13432;SDS011;6789;47.678;9.158;2023-05-07T01:02:47;5.47;;;3.33;;
13432;SDS011;6789;47.678;9.158;2023-05-07T01:07:58;5.40;;;3.38;;
13432;SDS011;6789;47.678;9.158;2023-05-07T01:13:37;4.85;;;3.33;;
13432;SDS011;6789;47.678;9.158;2023-05-07T01:19:23;4.30;;;3.58;;
13432;SDS011;6789;47.678;9.158;2023-05-07T01:24:42;7.93;;;4.20;;
13432;SDS011;6789;47.678;9.158;2023-05-07T01:29:50;5.45;;;4.03;;
13432;SDS011;6789;47.678;9.158;2023-05-07T01:34:56;5.07;;;3.78;;
13432;SDS011;6789;47.678;9.158;2023-05-07T01:40:05;7.47;;;3.97;;
13432;SDS011;6789;47.678;9.158;2023-05-07T01:44:59;4.32;;;3.42;;
13432;SDS011;6789;47.678;9.158;2023-05-07T01:49:51;4.40;;;3.40;;
13432;SDS011;6789;47.678;9.158;2023-05-07T01:54:43;4.72;;;3.22;;
13432;SDS011;6789;47.678;9.158;2023-05-07T01:59:35;4.50;;;3.63;;
13432;SDS011;6789;47.678;9.158;2023-05-07T02:04:27;7.05;;;4.28;;
13432;SDS011;6789;47.678;9.158;2023-05-07T02:09:43;6.05;;;4.00;;
13432;SDS011;6789;47.678;9.158;2023-05-07T02:14:35;6.40;;;3.33;;
13432;SDS011;6789;47.678;9.158;2023-05-07T02:19:27;5.28;;;3.50;;
13432;SDS011;6789;47.678;9.158;2023-05-07T02:24:18;4.25;;;3.80;;
13432;SDS011;6789;47.678;9.158;2023-05-07T02:29:10;3.70;;;3.38;;
13432;SDS011;6789;47.678;9.158;2023-05-07T02:34:02;4.60;;;3.63;;
13432;SDS011;6789;47.678;9.158;2023-05-07T02:38:54;6.93;;;3.58;;
13432;SDS011;6789;47.678;9.158;2023-05-07T02:43:46;4.63;;;3.45;;
13432;SDS011;6789;47.678;9.158;2023-05-07T02:48:38;5.43;;;3.53;;
13432;SDS011;6789;47.678;9.158;2023-05-07T02:53:30;4.33;;;3.30;;
13432;SDS011;6789;47.678;9.158;2023-05-07T02:58:22;3.88;;;3.25;;
13432;SDS011;6789;47.678;9.158;2023-05-07T03:03:14;5.83;;;3.67;;
13432;SDS011;6789;47.678;9.158;2023-05-07T03:08:06;4.25;;;3.20;;
13432;SDS011;6789;47.678;9.158;2023-05-07T03:12:59;6.10;;;3.35;;
13432;SDS011;6789;47.678;9.158;2023-05-07T03:17:52;6.10;;;3.75;;
13432;SDS011;6789;47.678;9.158;2023-05-07T03:22:44;4.57;;;3.50;;
13432;SDS011;6789;47.678;9.158;2023-05-07T03:27:36;5.60;;;3.90;;
13432;SDS011;6789;47.678;9.158;2023-05-07T03:32:28;5.40;;;3.70;;
13432;SDS011;6789;47.678;9.158;2023-05-07T03:37:19;5.67;;;4.00;;
13432;SDS011;6789;47.678;9.158;2023-05-07T03:42:12;6.17;;;4.07;;
13432;SDS011;6789;47.678;9.158;2023-05-07T03:47:04;4.10;;;3.70;;
13432;SDS011;6789;47.678;9.158;2023-05-07T03:51:56;5.97;;;4.13;;
13432;SDS011;6789;47.678;9.158;2023-05-07T03:56:48;7.67;;;3.57;;
13432;SDS011;6789;47.678;9.158;2023-05-07T04:01:39;4.37;;;3.70;;
13432;SDS011;6789;47.678;9.158;2023-05-07T04:06:31;6.80;;;3.63;;
13432;SDS011;6789;47.678;9.158;2023-05-07T04:11:25;7.57;;;4.50;;
13432;SDS011;6789;47.678;9.158;2023-05-07T04:16:18;7.67;;;4.40;;
13432;SDS011;6789;47.678;9.158;2023-05-07T04:21:20;5.63;;;4.40;;
13432;SDS011;6789;47.678;9.158;2023-05-07T04:26:13;6.43;;;4.20;;
13432;SDS011;6789;47.678;9.158;2023-05-07T04:31:06;5.63;;;4.27;;
13432;SDS011;6789;47.678;9.158;2023-05-07T04:35:58;8.80;;;4.07;;
13432;SDS011;6789;47.678;9.158;2023-05-07T04:41:08;5.25;;;4.10;;
13432;SDS011;6789;47.678;9.158;2023-05-07T04:46:01;5.15;;;3.80;;
13432;SDS011;6789;47.678;9.158;2023-05-07T04:50:53;4.45;;;3.42;;
13432;SDS011;6789;47.678;9.158;2023-05-07T04:55:55;7.18;;;3.88;;
13432;SDS011;6789;47.678;9.158;2023-05-07T05:00:48;4.97;;;3.40;;
13432;SDS011;6789;47.678;9.158;2023-05-07T05:05:54;6.05;;;3.75;;
13432;SDS011;6789;47.678;9.158;2023-05-07T05:10:48;3.70;;;2.97;;
13432;SDS011;6789;47.678;9.158;2023-05-07T05:15:41;4.53;;;3.00;;
13432;SDS011;6789;47.678;9.158;2023-05-07T05:20:33;4.13;;;3.13;;
13432;SDS011;6789;47.678;9.158;2023-05-07T05:25:26;5.70;;;3.13;;
13432;SDS011;6789;47.678;9.158;2023-05-07T05:30:19;3.88;;;3.35;;
13432;SDS011;6789;47.678;9.158;2023-05-07T05:35:25;3.50;;;3.20;;
13432;SDS011;6789;47.678;9.158;2023-05-07T05:40:17;3.72;;;3.08;;
13432;SDS011;6789;47.678;9.158;2023-05-07T05:45:10;3.28;;;2.97;;
13432;SDS011;6789;47.678;9.158;2023-05-07T05:50:02;4.05;;;3.15;;
13432;SDS011;6789;47.678;9.158;2023-05-07T05:54:57;3.80;;;3.03;;
13432;SDS011;6789;47.678;9.158;2023-05-07T06:00:02;3.10;;;2.90;;
13432;SDS011;6789;47.678;9.158;2023-05-07T06:05:00;3.20;;;2.90;;
13432;SDS011;6789;47.678;9.158;2023-05-07T06:09:53;3.58;;;2.90;;
13432;SDS011;6789;47.678;9.158;2023-05-07T06:14:50;3.50;;;3.20;;
13432;SDS011;6789;47.678;9.158;2023-05-07T06:19:58;4.45;;;3.25;;
13432;SDS011;6789;47.678;9.158;2023-05-07T06:25:04;5.85;;;3.47;;
13432;SDS011;6789;47.678;9.158;2023-05-07T06:29:57;5.78;;;3.28;;
13432;SDS011;6789;47.678;9.158;2023-05-07T06:34:53;5.88;;;3.97;;
13432;SDS011;6789;47.678;9.158;2023-05-07T06:39:59;4.18;;;3.42;;
13432;SDS011;6789;47.678;9.158;2023-05-07T06:44:52;4.93;;;3.38;;
13432;SDS011;6789;47.678;9.158;2023-05-07T06:49:45;4.85;;;3.80;;
13432;SDS011;6789;47.678;9.158;2023-05-07T06:54:52;5.15;;;3.60;;
13432;SDS011;6789;47.678;9.158;2023-05-07T06:59:52;4.00;;;3.67;;
13432;SDS011;6789;47.678;9.158;2023-05-07T07:04:58;5.00;;;3.58;;
13432;SDS011;6789;47.678;9.158;2023-05-07T07:09:51;5.70;;;3.95;;
13432;SDS011;6789;47.678;9.158;2023-05-07T07:14:45;3.88;;;3.40;;
13432;SDS011;6789;47.678;9.158;2023-05-07T07:19:51;4.07;;;3.50;;
13432;SDS011;6789;47.678;9.158;2023-05-07T07:24:57;7.55;;;3.80;;
13432;SDS011;6789;47.678;9.158;2023-05-07T07:29:49;6.43;;;4.47;;
13432;SDS011;6789;47.678;9.158;2023-05-07T07:34:42;4.43;;;3.83;;
13432;SDS011;6789;47.678;9.158;2023-05-07T07:39:48;5.05;;;3.78;;
13432;SDS011;6789;47.678;9.158;2023-05-07T07:44:40;5.72;;;3.63;;
13432;SDS011;6789;47.678;9.158;2023-05-07T07:49:35;4.82;;;4.13;;
13432;SDS011;6789;47.678;9.158;2023-05-07T07:54:31;6.25;;;4.38;;
13432;SDS011;6789;47.678;9.158;2023-05-07T07:59:31;6.82;;;4.35;;
13432;SDS011;6789;47.678;9.158;2023-05-07T08:05:03;5.30;;;4.35;;
13432;SDS011;6789;47.678;9.158;2023-05-07T08:09:56;6.45;;;4.05;;
13432;SDS011;6789;47.678;9.158;2023-05-07T08:14:48;8.00;;;4.00;;
13432;SDS011;6789;47.678;9.158;2023-05-07T08:19:40;4.95;;;3.65;;
13432;SDS011;6789;47.678;9.158;2023-05-07T08:24:32;4.53;;;3.40;;
13432;SDS011;6789;47.678;9.158;2023-05-07T08:29:24;5.20;;;3.60;;
13432;SDS011;6789;47.678;9.158;2023-05-07T08:34:16;3.72;;;3.33;;
13432;SDS011;6789;47.678;9.158;2023-05-07T08:39:08;4.25;;;3.55;;
13432;SDS011;6789;47.678;9.158;2023-05-07T08:44:00;3.60;;;3.30;;
13432;SDS011;6789;47.678;9.158;2023-05-07T08:49:09;4.30;;;3.72;;
13432;SDS011;6789;47.678;9.158;2023-05-07T08:54:01;8.23;;;4.00;;
13432;SDS011;6789;47.678;9.158;2023-05-07T08:58:53;3.38;;;3.08;;
13432;SDS011;6789;47.678;9.158;2023-05-07T09:03:49;2.05;;;1.85;;
13432;SDS011;6789;47.678;9.158;2023-05-07T09:08:56;3.33;;;2.80;;
13432;SDS011;6789;47.678;9.158;2023-05-07T09:14:03;2.97;;;2.63;;
13432;SDS011;6789;47.678;9.158;2023-05-07T09:19:28;4.50;;;2.13;;
13432;SDS011;6789;47.678;9.158;2023-05-07T09:24:35;3.15;;;2.35;;
13432;SDS011;6789;47.678;9.158;2023-05-07T09:29:43;2.40;;;1.70;;
13432;SDS011;6789;47.678;9.158;2023-05-07T09:34:43;3.28;;;1.80;;
13432;SDS011;6789;47.678;9.158;2023-05-07T09:39:43;3.45;;;1.70;;
13432;SDS011;6789;47.678;9.158;2023-05-07T09:44:52;5.57;;;1.92;;
13432;SDS011;6789;47.678;9.158;2023-05-07T09:49:49;2.92;;;1.90;;
13432;SDS011;6789;47.678;9.158;2023-05-07T09:55:00;1.77;;;1.58;;
13432;SDS011;6789;47.678;9.158;2023-05-07T09:59:55;1.90;;;1.65;;
13432;SDS011;6789;47.678;9.158;2023-05-07T10:04:49;2.95;;;2.05;;
13432;SDS011;6789;47.678;9.158;2023-05-07T10:09:57;2.42;;;2.13;;
13432;SDS011;6789;47.678;9.158;2023-05-07T10:14:52;3.28;;;2.50;;
13432;SDS011;6789;47.678;9.158;2023-05-07T10:19:59;3.30;;;2.75;;
13432;SDS011;6789;47.678;9.158;2023-05-07T10:25:06;2.92;;;1.98;;
13432;SDS011;6789;47.678;9.158;2023-05-07T10:35:57;3.70;;;2.25;;
13432;SDS011;6789;47.678;9.158;2023-05-07T10:40:59;3.88;;;2.28;;
13432;SDS011;6789;47.678;9.158;2023-05-07T10:46:09;2.58;;;2.20;;
13432;SDS011;6789;47.678;9.158;2023-05-07T10:51:23;4.85;;;3.20;;
13432;SDS011;6789;47.678;9.158;2023-05-07T11:07:09;3.53;;;3.00;;
13432;SDS011;6789;47.678;9.158;2023-05-07T11:17:30;3.75;;;3.20;;
13432;SDS011;6789;47.678;9.158;2023-05-07T11:22:39;3.78;;;3.47;;
13432;SDS011;6789;47.678;9.158;2023-05-07T11:27:34;4.07;;;3.15;;
13432;SDS011;6789;47.678;9.158;2023-05-07T11:32:42;3.00;;;2.70;;
13432;SDS011;6789;47.678;9.158;2023-05-07T11:37:43;3.40;;;2.53;;
13432;SDS011;6789;47.678;9.158;2023-05-07T11:42:51;4.28;;;3.40;;
13432;SDS011;6789;47.678;9.158;2023-05-07T11:47:57;4.20;;;3.80;;
13432;SDS011;6789;47.678;9.158;2023-05-07T11:52:53;4.45;;;3.03;;
13432;SDS011;6789;47.678;9.158;2023-05-07T11:57:45;4.70;;;4.05;;
13432;SDS011;6789;47.678;9.158;2023-05-07T12:02:39;6.65;;;3.85;;
13432;SDS011;6789;47.678;9.158;2023-05-07T12:07:37;5.68;;;4.85;;
13432;SDS011;6789;47.678;9.158;2023-05-07T12:12:39;6.43;;;4.72;;
13432;SDS011;6789;47.678;9.158;2023-05-07T12:17:49;5.30;;;4.75;;
13432;SDS011;6789;47.678;9.158;2023-05-07T12:22:55;5.00;;;4.50;;
13432;SDS011;6789;47.678;9.158;2023-05-07T12:45:16;6.32;;;3.45;;
13432;SDS011;6789;47.678;9.158;2023-05-07T12:50:22;4.82;;;3.45;;
13432;SDS011;6789;47.678;9.158;2023-05-07T12:55:41;3.38;;;2.60;;
13432;SDS011;6789;47.678;9.158;2023-05-07T13:00:49;2.40;;;2.15;;
13432;SDS011;6789;47.678;9.158;2023-05-07T13:05:57;3.00;;;2.50;;
13432;SDS011;6789;47.678;9.158;2023-05-07T13:11:14;2.90;;;2.53;;
13432;SDS011;6789;47.678;9.158;2023-05-07T13:16:20;3.50;;;2.08;;
13432;SDS011;6789;47.678;9.158;2023-05-07T13:21:26;3.08;;;2.03;;
13432;SDS011;6789;47.678;9.158;2023-05-07T13:26:22;1.90;;;1.77;;
13432;SDS011;6789;47.678;9.158;2023-05-07T13:31:29;2.25;;;2.05;;
13432;SDS011;6789;47.678;9.158;2023-05-07T13:36:35;2.78;;;2.08;;
13432;SDS011;6789;47.678;9.158;2023-05-07T13:41:44;3.35;;;2.20;;
13432;SDS011;6789;47.678;9.158;2023-05-07T13:46:37;3.20;;;2.25;;
13432;SDS011;6789;47.678;9.158;2023-05-07T13:51:43;2.53;;;2.10;;
13432;SDS011;6789;47.678;9.158;2023-05-07T13:56:48;3.05;;;2.20;;
13432;SDS011;6789;47.678;9.158;2023-05-07T14:01:54;2.70;;;2.50;;
13432;SDS011;6789;47.678;9.158;2023-05-07T14:07:00;2.72;;;2.30;;
13432;SDS011;6789;47.678;9.158;2023-05-07T14:12:08;3.28;;;2.00;;
13432;SDS011;6789;47.678;9.158;2023-05-07T14:17:14;3.10;;;1.80;;
13432;SDS011;6789;47.678;9.158;2023-05-07T14:22:25;4.88;;;1.83;;
13432;SDS011;6789;47.678;9.158;2023-05-07T14:27:31;2.03;;;1.52;;
13432;SDS011;6789;47.678;9.158;2023-05-07T14:32:37;2.60;;;1.30;;
13432;SDS011;6789;47.678;9.158;2023-05-07T14:37:43;1.73;;;1.45;;
13432;SDS011;6789;47.678;9.158;2023-05-07T14:42:36;2.10;;;1.30;;
13432;SDS011;6789;47.678;9.158;2023-05-07T14:47:33;2.38;;;2.00;;
13432;SDS011;6789;47.678;9.158;2023-05-07T14:52:39;2.70;;;1.20;;
13432;SDS011;6789;47.678;9.158;2023-05-07T14:57:32;1.48;;;1.27;;
13432;SDS011;6789;47.678;9.158;2023-05-07T15:02:40;1.63;;;1.50;;
13432;SDS011;6789;47.678;9.158;2023-05-07T15:07:32;1.17;;;1.08;;
13432;SDS011;6789;47.678;9.158;2023-05-07T15:12:25;1.60;;;1.20;;
13432;SDS011;6789;47.678;9.158;2023-05-07T15:17:17;2.28;;;1.02;;
13432;SDS011;6789;47.678;9.158;2023-05-07T15:22:16;3.67;;;1.20;;
13432;SDS011;6789;47.678;9.158;2023-05-07T15:27:08;1.30;;;1.20;;
13432;SDS011;6789;47.678;9.158;2023-05-07T15:31:59;1.35;;;1.23;;
13432;SDS011;6789;47.678;9.158;2023-05-07T15:36:51;2.25;;;1.58;;
13432;SDS011;6789;47.678;9.158;2023-05-07T15:41:43;2.47;;;1.13;;
13432;SDS011;6789;47.678;9.158;2023-05-07T15:46:35;1.40;;;1.27;;
13432;SDS011;6789;47.678;9.158;2023-05-07T15:51:26;3.25;;;1.25;;
13432;SDS011;6789;47.678;9.158;2023-05-07T15:56:19;2.78;;;1.20;;
13432;SDS011;6789;47.678;9.158;2023-05-07T16:01:11;1.25;;;1.15;;
13432;SDS011;6789;47.678;9.158;2023-05-07T16:06:03;2.88;;;1.25;;
13432;SDS011;6789;47.678;9.158;2023-05-07T16:11:10;1.23;;;1.13;;
13432;SDS011;6789;47.678;9.158;2023-05-07T16:16:20;1.65;;;1.40;;
13432;SDS011;6789;47.678;9.158;2023-05-07T16:21:26;1.40;;;1.30;;
13432;SDS011;6789;47.678;9.158;2023-05-07T16:26:33;2.67;;;1.27;;
13432;SDS011;6789;47.678;9.158;2023-05-07T16:31:41;2.70;;;1.25;;
13432;SDS011;6789;47.678;9.158;2023-05-07T16:36:48;2.60;;;1.38;;
13432;SDS011;6789;47.678;9.158;2023-05-07T16:41:54;1.25;;;1.15;;
13432;SDS011;6789;47.678;9.158;2023-05-07T16:47:00;2.22;;;1.33;;
13432;SDS011;6789;47.678;9.158;2023-05-07T16:52:07;3.30;;;1.35;;
13432;SDS011;6789;47.678;9.158;2023-05-07T17:03:40;3.08;;;1.40;;
13432;SDS011;6789;47.678;9.158;2023-05-07T17:08:46;1.95;;;1.75;;
13432;SDS011;6789;47.678;9.158;2023-05-07T17:13:39;2.10;;;1.65;;
13432;SDS011;6789;47.678;9.158;2023-05-07T17:18:33;1.65;;;1.55;;
13432;SDS011;6789;47.678;9.158;2023-05-07T17:23:26;2.05;;;1.85;;
13432;SDS011;6789;47.678;9.158;2023-05-07T17:28:19;2.78;;;1.88;;
13432;SDS011;6789;47.678;9.158;2023-05-07T17:33:25;3.75;;;1.95;;
13432;SDS011;6789;47.678;9.158;2023-05-07T17:38:18;3.22;;;2.30;;
13432;SDS011;6789;47.678;9.158;2023-05-07T17:43:24;3.00;;;2.70;;
13432;SDS011;6789;47.678;9.158;2023-05-07T17:48:30;7.00;;;2.78;;
13432;SDS011;6789;47.678;9.158;2023-05-07T17:53:36;4.10;;;2.70;;
13432;SDS011;6789;47.678;9.158;2023-05-07T17:58:41;4.38;;;2.90;;
13432;SDS011;6789;47.678;9.158;2023-05-07T18:03:48;6.65;;;2.90;;
13432;SDS011;6789;47.678;9.158;2023-05-07T18:08:54;3.20;;;2.42;;
13432;SDS011;6789;47.678;9.158;2023-05-07T18:14:00;2.83;;;2.13;;
13432;SDS011;6789;47.678;9.158;2023-05-07T18:19:07;3.70;;;2.35;;
13432;SDS011;6789;47.678;9.158;2023-05-07T18:24:34;2.92;;;2.53;;
13432;SDS011;6789;47.678;9.158;2023-05-07T18:30:01;4.78;;;2.63;;
13432;SDS011;6789;47.678;9.158;2023-05-07T18:35:07;2.95;;;2.53;;
13432;SDS011;6789;47.678;9.158;2023-05-07T18:40:13;4.22;;;2.40;;
13432;SDS011;6789;47.678;9.158;2023-05-07T18:45:19;2.55;;;2.17;;
13432;SDS011;6789;47.678;9.158;2023-05-07T18:50:51;5.63;;;3.55;;
13432;SDS011;6789;47.678;9.158;2023-05-07T18:55:58;2.55;;;2.20;;
13432;SDS011;6789;47.678;9.158;2023-05-07T19:01:16;3.33;;;2.17;;
13432;SDS011;6789;47.678;9.158;2023-05-07T19:06:38;4.38;;;2.75;;
13432;SDS011;6789;47.678;9.158;2023-05-07T19:11:48;3.55;;;2.58;;
13432;SDS011;6789;47.678;9.158;2023-05-07T19:17:05;3.10;;;2.55;;
13432;SDS011;6789;47.678;9.158;2023-05-07T19:22:14;3.05;;;2.33;;
13432;SDS011;6789;47.678;9.158;2023-05-07T19:27:33;4.22;;;2.30;;
13432;SDS011;6789;47.678;9.158;2023-05-07T19:32:39;3.53;;;2.35;;
13432;SDS011;6789;47.678;9.158;2023-05-07T19:37:55;2.47;;;2.25;;
13432;SDS011;6789;47.678;9.158;2023-05-07T19:43:01;3.67;;;2.70;;
13432;SDS011;6789;47.678;9.158;2023-05-07T19:48:08;2.53;;;2.20;;
13432;SDS011;6789;47.678;9.158;2023-05-07T19:53:18;3.95;;;2.40;;
13432;SDS011;6789;47.678;9.158;2023-05-07T19:58:24;3.30;;;2.17;;
13432;SDS011;6789;47.678;9.158;2023-05-07T20:03:40;2.88;;;2.40;;
13432;SDS011;6789;47.678;9.158;2023-05-07T20:09:18;2.80;;;2.42;;
13432;SDS011;6789;47.678;9.158;2023-05-07T20:14:25;3.85;;;2.30;;
13432;SDS011;6789;47.678;9.158;2023-05-07T20:19:25;2.25;;;2.05;;
13432;SDS011;6789;47.678;9.158;2023-05-07T20:24:35;2.60;;;1.90;;
13432;SDS011;6789;47.678;9.158;2023-05-07T20:29:43;2.80;;;1.98;;
13432;SDS011;6789;47.678;9.158;2023-05-07T20:34:50;5.25;;;2.10;;
13432;SDS011;6789;47.678;9.158;2023-05-07T20:39:47;1.60;;;1.50;;
13432;SDS011;6789;47.678;9.158;2023-05-07T20:44:54;1.50;;;1.30;;
13432;SDS011;6789;47.678;9.158;2023-05-07T20:50:02;3.00;;;1.38;;
13432;SDS011;6789;47.678;9.158;2023-05-07T20:55:09;2.05;;;1.17;;
13432;SDS011;6789;47.678;9.158;2023-05-07T21:00:16;2.17;;;1.38;;
13432;SDS011;6789;47.678;9.158;2023-05-07T21:05:23;2.35;;;1.30;;
13432;SDS011;6789;47.678;9.158;2023-05-07T21:10:46;1.20;;;1.20;;
13432;SDS011;6789;47.678;9.158;2023-05-07T21:16:03;1.63;;;1.02;;
13432;SDS011;6789;47.678;9.158;2023-05-07T21:21:09;1.42;;;1.13;;
13432;SDS011;6789;47.678;9.158;2023-05-07T21:26:26;1.83;;;1.20;;
13432;SDS011;6789;47.678;9.158;2023-05-07T21:31:36;1.88;;;1.10;;
13432;SDS011;6789;47.678;9.158;2023-05-07T21:37:00;2.38;;;1.83;;
13432;SDS011;6789;47.678;9.158;2023-05-07T21:42:07;1.70;;;1.27;;
13432;SDS011;6789;47.678;9.158;2023-05-07T21:47:14;4.68;;;1.02;;
13432;SDS011;6789;47.678;9.158;2023-05-07T21:52:28;1.27;;;1.17;;
13432;SDS011;6789;47.678;9.158;2023-05-07T21:57:57;0.70;;;0.70;;
13432;SDS011;6789;47.678;9.158;2023-05-07T22:03:55;2.90;;;1.05;;
13432;SDS011;6789;47.678;9.158;2023-05-07T22:09:02;1.23;;;1.00;;
13432;SDS011;6789;47.678;9.158;2023-05-07T22:14:31;1.50;;;1.13;;
13432;SDS011;6789;47.678;9.158;2023-05-07T22:19:37;1.30;;;1.00;;
13432;SDS011;6789;47.678;9.158;2023-05-07T22:31:11;0.98;;;0.70;;
13432;SDS011;6789;47.678;9.158;2023-05-07T22:36:18;2.65;;;0.70;;
13432;SDS011;6789;47.678;9.158;2023-05-07T22:41:35;0.80;;;0.70;;
13432;SDS011;6789;47.678;9.158;2023-05-07T22:46:54;0.40;;;0.40;;
13432;SDS011;6789;47.678;9.158;2023-05-07T23:03:23;1.45;;;1.13;;
13432;SDS011;6789;47.678;9.158;2023-05-07T23:08:15;2.15;;;0.63;;
13432;SDS011;6789;47.678;9.158;2023-05-07T23:13:07;1.58;;;0.70;;
13432;SDS011;6789;47.678;9.158;2023-05-07T23:18:05;0.80;;;0.40;;
13432;SDS011;6789;47.678;9.158;2023-05-07T23:22:57;1.67;;;0.70;;
13432;SDS011;6789;47.678;9.158;2023-05-07T23:27:48;1.42;;;0.80;;
13432;SDS011;6789;47.678;9.158;2023-05-07T23:32:40;0.50;;;0.50;;
13432;SDS011;6789;47.678;9.158;2023-05-07T23:37:32;0.77;;;0.40;;
13432;SDS011;6789;47.678;9.158;2023-05-07T23:42:24;1.13;;;0.60;;
13432;SDS011;6789;47.678;9.158;2023-05-07T23:47:16;1.77;;;0.43;;
13432;SDS011;6789;47.678;9.158;2023-05-07T23:52:08;0.63;;;0.40;;
13432;SDS011;6789;47.678;9.158;2023-05-07T23:56:59;0.65;;;0.65;;
